Time;durP1;ratioP1;P1;durP2;ratioP2;P2;SDS_P1;SDS_P2;PMS_P1;PMS_P2;Temp;Humidity;BMP_temperature;BMP_pressure;BME280_temperature;BME280_humidity;BME280_pressure;Samples;Min_cycle;Max_cycle;Signal;HPM_P1;HPM_P2
2024/03/22 00:01:25;;;;;;;;;;;7.90;99.90;;;;;;5032374;28;19963;-56
2024/03/22 00:03:50;;;;;;;;;;;7.90;99.90;;;;;;5040312;28;19913;-51
2024/03/22 00:06:16;;;;;;;;;;;7.90;99.90;;;;;;5040381;28;19917;-54
2024/03/22 00:08:41;;;;;;;;;;;7.90;99.90;;;;;;5031333;28;19967;-57
2024/03/22 00:11:07;;;;;;;;;;;7.90;99.90;;;;;;5040205;28;20285;-57
2024/03/22 00:13:32;;;;;;;;;;;7.90;99.90;;;;;;5031906;28;19966;-51
2024/03/22 00:15:58;;;;;;;;;;;7.80;99.90;;;;;;5031660;28;19945;-53
2024/03/22 00:18:23;;;;;;;;;;;7.80;99.90;;;;;;5031397;28;19913;-56
2024/03/22 00:20:48;;;;;;;;;;;7.80;99.90;;;;;;5031727;28;20434;-57
2024/03/22 00:23:14;;;;;;;;;;;7.70;99.90;;;;;;5039905;28;19928;-56
2024/03/22 00:25:39;;;;;;;;;;;7.70;99.90;;;;;;5039210;28;19917;-54
2024/03/22 00:28:05;;;;;;;;;;;7.60;99.90;;;;;;5040927;28;19943;-53
2024/03/22 00:30:30;;;;;;;;;;;7.50;99.90;;;;;;5039618;28;20436;-51
2024/03/22 00:32:56;;;;;;;;;;;7.50;99.90;;;;;;5039886;28;20288;-53
2024/03/22 00:35:21;;;;;;;;;;;7.40;99.90;;;;;;5031366;28;19917;-57
2024/03/22 00:37:47;;;;;;;;;;;7.40;99.90;;;;;;5031249;28;19963;-50
2024/03/22 00:40:12;;;;;;;;;;;7.20;99.90;;;;;;5039131;28;20284;-53
2024/03/22 00:42:37;;;;;;;;;;;7.20;99.90;;;;;;5039595;28;19913;-53
2024/03/22 00:45:03;;;;;;;;;;;7.20;99.90;;;;;;5031133;28;19917;-50
2024/03/22 00:47:29;;;;;;;;;;;7.10;99.90;;;;;;5036590;28;19925;-53
2024/03/22 00:49:54;;;;;;;;;;;7.10;99.90;;;;;;5042204;28;19926;-55
2024/03/22 00:52:19;;;;;;;;;;;7.10;99.90;;;;;;5051014;28;20007;-56
2024/03/22 00:54:45;;;;;;;;;;;7.10;99.90;;;;;;5043244;28;20004;-56
2024/03/22 00:57:10;;;;;;;;;;;7.00;99.90;;;;;;5030706;28;19921;-54
2024/03/22 00:59:36;;;;;;;;;;;7.00;99.90;;;;;;5035098;28;20456;-54
2024/03/22 01:02:01;;;;;;;;;;;7.00;99.90;;;;;;5046980;28;19916;-51
2024/03/22 01:04:27;;;;;;;;;;;7.00;99.90;;;;;;5050793;28;19913;-53
2024/03/22 01:06:52;;;;;;;;;;;7.00;99.90;;;;;;5049737;28;19912;-51
2024/03/22 01:09:19;;;;;;;;;;;7.00;99.90;;;;;;5034079;28;20293;-57
2024/03/22 01:11:44;;;;;;;;;;;7.00;99.90;;;;;;5034942;28;20331;-51
2024/03/22 01:14:10;;;;;;;;;;;7.00;99.90;;;;;;5030674;28;19917;-56
2024/03/22 01:16:35;;;;;;;;;;;7.00;99.90;;;;;;5030662;28;20292;-52
2024/03/22 01:19:01;;;;;;;;;;;7.00;99.90;;;;;;5039775;28;19921;-50
2024/03/22 01:21:26;;;;;;;;;;;7.00;99.90;;;;;;5045333;28;19963;-51
2024/03/22 01:23:52;;;;;;;;;;;7.00;99.90;;;;;;5030491;28;20023;-55
2024/03/22 01:26:17;;;;;;;;;;;7.10;99.90;;;;;;5034232;28;19916;-51
2024/03/22 01:28:43;;;;;;;;;;;7.10;99.90;;;;;;5034224;28;19928;-51
2024/03/22 01:31:08;;;;;;;;;;;7.20;99.90;;;;;;5038583;28;20339;-56
2024/03/22 01:33:34;;;;;;;;;;;7.20;99.90;;;;;;5038628;28;19939;-51
2024/03/22 01:35:59;;;;;;;;;;;7.10;99.90;;;;;;5038239;28;19917;-51
2024/03/22 01:38:25;;;;;;;;;;;7.10;99.90;;;;;;5038101;28;20443;-51
2024/03/22 01:40:50;;;;;;;;;;;7.10;99.90;;;;;;5030278;28;19998;-56
2024/03/22 01:43:16;;;;;;;;;;;7.00;99.90;;;;;;5030207;28;20324;-51
2024/03/22 01:45:41;;;;;;;;;;;7.00;99.90;;;;;;5038578;28;19923;-55
2024/03/22 01:48:07;;;;;;;;;;;6.90;99.90;;;;;;5040528;28;19921;-56
2024/03/22 01:50:32;;;;;;;;;;;6.80;99.90;;;;;;5035633;28;19921;-56
2024/03/22 01:52:58;;;;;;;;;;;6.80;99.90;;;;;;5031110;28;19917;-51
2024/03/22 01:55:23;;;;;;;;;;;6.70;99.90;;;;;;5049950;28;19921;-51
2024/03/22 01:57:51;;;;;;;;;;;6.70;99.90;;;;;;5049876;28;19923;-56
2024/03/22 02:00:17;;;;;;;;;;;6.60;99.90;;;;;;5029568;28;19917;-57
2024/03/22 02:02:42;;;;;;;;;;;6.60;99.90;;;;;;5030387;28;19917;-55
2024/03/22 02:05:19;;;;;;;;;;;6.50;99.90;;;;;;5029907;28;19913;-53
2024/03/22 02:07:48;;;;;;;;;;;6.40;99.90;;;;;;5045557;28;20272;-51
2024/03/22 02:10:14;;;;;;;;;;;6.40;99.90;;;;;;5037869;28;19909;-55
2024/03/22 02:12:39;;;;;;;;;;;6.40;99.90;;;;;;5037696;28;19916;-57
2024/03/22 02:15:06;;;;;;;;;;;6.40;99.90;;;;;;5029887;28;19913;-58
2024/03/22 02:17:32;;;;;;;;;;;6.40;99.90;;;;;;5030018;28;19909;-52
2024/03/22 02:19:58;;;;;;;;;;;6.40;99.90;;;;;;5038621;28;20292;-54
2024/03/22 02:22:24;;;;;;;;;;;6.30;99.90;;;;;;5045014;28;20012;-55
2024/03/22 02:24:49;;;;;;;;;;;6.30;99.90;;;;;;5038054;28;19956;-56
2024/03/22 02:27:14;;;;;;;;;;;6.30;99.90;;;;;;5037839;28;20321;-52
2024/03/22 02:29:40;;;;;;;;;;;6.30;99.90;;;;;;5029305;28;19917;-51
2024/03/22 02:32:06;;;;;;;;;;;6.30;99.90;;;;;;5029753;28;19913;-56
2024/03/22 02:34:31;;;;;;;;;;;6.30;99.90;;;;;;5029632;28;20654;-56
2024/03/22 02:36:57;;;;;;;;;;;6.30;99.90;;;;;;5037628;28;19913;-55
2024/03/22 02:39:22;;;;;;;;;;;6.30;99.90;;;;;;5033419;28;19920;-57
2024/03/22 02:41:47;;;;;;;;;;;6.40;99.90;;;;;;5033613;28;20396;-58
2024/03/22 02:44:13;;;;;;;;;;;6.40;99.90;;;;;;5032701;28;19963;-52
2024/03/22 02:46:38;;;;;;;;;;;6.40;99.90;;;;;;5049333;28;19924;-54
2024/03/22 02:49:04;;;;;;;;;;;6.30;99.90;;;;;;5049024;28;19920;-53
2024/03/22 02:51:29;;;;;;;;;;;6.40;99.90;;;;;;5035867;28;19917;-59
2024/03/22 02:53:55;;;;;;;;;;;6.40;99.90;;;;;;5038315;28;19920;-56
2024/03/22 02:56:21;;;;;;;;;;;6.40;99.90;;;;;;5041187;28;19921;-55
2024/03/22 02:58:46;;;;;;;;;;;6.50;99.90;;;;;;5040820;28;19980;-55
2024/03/22 03:01:12;;;;;;;;;;;6.50;99.90;;;;;;5032857;28;19913;-55
2024/03/22 03:03:37;;;;;;;;;;;6.50;99.90;;;;;;5034934;28;19924;-56
2024/03/22 03:06:02;;;;;;;;;;;6.50;99.90;;;;;;5037390;28;19913;-56
2024/03/22 03:08:28;;;;;;;;;;;6.40;99.90;;;;;;5028728;28;19925;-57
2024/03/22 03:10:53;;;;;;;;;;;6.40;99.90;;;;;;5029350;28;20018;-54
2024/03/22 03:13:19;;;;;;;;;;;6.40;99.90;;;;;;5033209;28;19959;-56
2024/03/22 03:15:44;;;;;;;;;;;6.40;99.90;;;;;;5033614;28;19925;-55
2024/03/22 03:18:10;;;;;;;;;;;6.40;99.90;;;;;;5045320;28;20395;-55
2024/03/22 03:20:35;;;;;;;;;;;6.30;99.90;;;;;;5029311;28;19917;-55
2024/03/22 03:23:01;;;;;;;;;;;6.30;99.90;;;;;;5037228;28;19952;-54
2024/03/22 03:25:27;;;;;;;;;;;6.30;99.90;;;;;;5037695;28;19917;-56
2024/03/22 03:27:52;;;;;;;;;;;6.40;99.90;;;;;;5052241;28;19991;-58
2024/03/22 03:30:18;;;;;;;;;;;6.30;99.90;;;;;;5035909;28;19908;-54
2024/03/22 03:32:43;;;;;;;;;;;6.30;99.90;;;;;;5037513;28;19918;-53
2024/03/22 03:35:09;;;;;;;;;;;6.30;99.90;;;;;;5032538;28;19925;-55
2024/03/22 03:37:34;;;;;;;;;;;6.30;99.90;;;;;;5032539;28;20010;-56
2024/03/22 03:40:00;;;;;;;;;;;6.40;99.90;;;;;;5033162;28;20395;-55
2024/03/22 03:42:25;;;;;;;;;;;6.30;99.90;;;;;;5044389;28;19917;-56
2024/03/22 03:44:51;;;;;;;;;;;6.40;99.90;;;;;;5036078;28;20006;-56
2024/03/22 03:47:16;;;;;;;;;;;6.40;99.90;;;;;;5040356;28;20071;-51
2024/03/22 03:49:42;;;;;;;;;;;6.40;99.90;;;;;;5020902;28;19917;-54
2024/03/22 03:52:07;;;;;;;;;;;6.40;99.90;;;;;;5041729;28;19915;-55
2024/03/22 03:54:32;;;;;;;;;;;6.50;99.90;;;;;;5032327;28;19913;-51
2024/03/22 03:56:58;;;;;;;;;;;6.50;99.90;;;;;;5040185;28;19912;-51
2024/03/22 03:59:24;;;;;;;;;;;6.50;99.90;;;;;;5044328;28;19916;-55
2024/03/22 04:01:49;;;;;;;;;;;6.50;99.90;;;;;;5036028;28;20316;-51
2024/03/22 04:04:15;;;;;;;;;;;6.50;99.90;;;;;;5040229;28;19913;-56
2024/03/22 04:06:40;;;;;;;;;;;6.50;99.90;;;;;;5031676;28;19917;-56
2024/03/22 04:09:06;;;;;;;;;;;6.50;99.90;;;;;;5031363;28;19936;-51
2024/03/22 04:11:31;;;;;;;;;;;6.50;99.90;;;;;;5040430;28;19964;-55
2024/03/22 04:13:57;;;;;;;;;;;6.60;99.90;;;;;;5031971;28;19917;-51
2024/03/22 04:16:22;;;;;;;;;;;6.70;99.90;;;;;;5031818;28;19909;-52
2024/03/22 04:18:48;;;;;;;;;;;6.70;99.90;;;;;;5031220;28;19943;-54
2024/03/22 04:21:13;;;;;;;;;;;6.70;99.90;;;;;;5031554;28;19924;-57
2024/03/22 04:23:39;;;;;;;;;;;6.70;99.90;;;;;;5031710;28;19917;-55
2024/03/22 04:26:04;;;;;;;;;;;6.70;99.90;;;;;;5031577;28;19921;-53
2024/03/22 04:28:30;;;;;;;;;;;6.70;99.90;;;;;;5031334;28;20055;-59
2024/03/22 04:30:56;;;;;;;;;;;6.70;99.90;;;;;;5048133;28;19912;-59
2024/03/22 04:33:22;;;;;;;;;;;6.70;99.90;;;;;;5043953;28;19917;-58
2024/03/22 04:35:47;;;;;;;;;;;6.70;99.90;;;;;;5050924;28;19916;-53
2024/03/22 04:38:13;;;;;;;;;;;6.80;99.90;;;;;;5031074;28;19909;-54
2024/03/22 04:40:39;;;;;;;;;;;6.80;99.90;;;;;;5037901;28;20015;-52
2024/03/22 04:43:04;;;;;;;;;;;6.80;99.90;;;;;;5033085;28;20396;-55
2024/03/22 04:45:30;;;;;;;;;;;6.90;99.90;;;;;;5031142;28;19917;-59
2024/03/22 04:47:55;;;;;;;;;;;6.90;99.90;;;;;;5039297;28;19917;-55
2024/03/22 04:50:21;;;;;;;;;;;6.90;99.90;;;;;;5039022;28;19917;-54
2024/03/22 04:52:46;;;;;;;;;;;6.90;99.90;;;;;;5031075;28;19925;-58
2024/03/22 04:55:11;;;;;;;;;;;6.90;99.90;;;;;;5039227;28;20381;-53
2024/03/22 04:57:37;;;;;;;;;;;6.90;99.90;;;;;;5037163;28;19921;-57
2024/03/22 05:00:03;;;;;;;;;;;7.00;99.90;;;;;;5032543;28;19921;-54
2024/03/22 05:02:28;;;;;;;;;;;6.90;99.90;;;;;;5031216;28;19956;-55
2024/03/22 05:04:54;;;;;;;;;;;6.90;99.90;;;;;;5047220;28;20320;-53
2024/03/22 05:07:19;;;;;;;;;;;6.90;99.90;;;;;;5030689;28;19924;-54
2024/03/22 05:09:45;;;;;;;;;;;6.90;99.90;;;;;;5030254;28;19960;-56
2024/03/22 05:12:10;;;;;;;;;;;6.90;99.90;;;;;;5033167;28;20258;-56
2024/03/22 05:14:36;;;;;;;;;;;7.00;99.90;;;;;;5036517;28;20027;-55
2024/03/22 05:17:01;;;;;;;;;;;7.10;99.90;;;;;;5030539;28;19975;-51
2024/03/22 05:19:27;;;;;;;;;;;7.00;99.90;;;;;;5030119;28;20278;-52
2024/03/22 05:21:52;;;;;;;;;;;7.00;99.90;;;;;;5038621;28;19920;-56
2024/03/22 05:24:18;;;;;;;;;;;7.10;99.90;;;;;;5033923;28;20397;-55
2024/03/22 05:26:43;;;;;;;;;;;7.10;99.90;;;;;;5042034;28;20037;-52
2024/03/22 05:29:08;;;;;;;;;;;7.10;99.90;;;;;;5039353;28;19963;-57
2024/03/22 05:31:45;;;;;;;;;;;7.20;99.90;;;;;;5038792;28;19943;-51
2024/03/22 05:34:10;;;;;;;;;;;7.20;99.90;;;;;;5041033;28;20019;-55
2024/03/22 05:36:35;;;;;;;;;;;7.20;99.90;;;;;;5036143;28;20008;-54
2024/03/22 05:39:01;;;;;;;;;;;7.30;99.90;;;;;;5020085;28;19924;-56
2024/03/22 05:41:27;;;;;;;;;;;7.30;99.90;;;;;;5030512;28;19922;-54
2024/03/22 05:43:52;;;;;;;;;;;7.40;99.90;;;;;;5030388;28;20429;-54
2024/03/22 05:46:18;;;;;;;;;;;7.30;99.90;;;;;;5032574;28;19921;-53
2024/03/22 05:48:43;;;;;;;;;;;7.40;99.90;;;;;;5023397;28;19917;-58
2024/03/22 05:51:09;;;;;;;;;;;7.30;99.90;;;;;;5039272;28;19943;-51
2024/03/22 05:53:34;;;;;;;;;;;7.30;99.90;;;;;;5029196;28;20335;-56
2024/03/22 05:56:00;;;;;;;;;;;7.30;99.90;;;;;;5030427;28;20018;-52
2024/03/22 05:58:25;;;;;;;;;;;7.40;99.90;;;;;;5044335;28;19917;-54
2024/03/22 06:00:53;;;;;;;;;;;7.30;99.90;;;;;;5029485;28;19913;-53
2024/03/22 06:03:18;;;;;;;;;;;7.40;99.90;;;;;;5029529;28;19990;-54
2024/03/22 06:05:44;;;;;;;;;;;7.40;99.90;;;;;;5027603;28;19925;-56
2024/03/22 06:08:09;;;;;;;;;;;7.40;99.90;;;;;;5044523;28;19919;-56
2024/03/22 06:10:35;;;;;;;;;;;7.40;99.90;;;;;;5043118;28;19916;-53
2024/03/22 06:13:00;;;;;;;;;;;7.50;99.90;;;;;;5040019;28;19917;-52
2024/03/22 06:15:26;;;;;;;;;;;7.50;99.90;;;;;;5029437;28;19924;-55
2024/03/22 06:17:51;;;;;;;;;;;7.50;99.90;;;;;;5029103;28;19917;-53
2024/03/22 06:20:17;;;;;;;;;;;7.60;99.90;;;;;;5028514;28;20304;-53
2024/03/22 06:22:42;;;;;;;;;;;7.60;99.90;;;;;;5019264;28;20428;-54
2024/03/22 06:25:08;;;;;;;;;;;7.60;99.90;;;;;;5037195;28;20016;-56
2024/03/22 06:27:33;;;;;;;;;;;7.70;99.90;;;;;;5029119;28;19918;-54
2024/03/22 06:29:59;;;;;;;;;;;7.70;99.90;;;;;;5037395;28;19921;-57
2024/03/22 06:32:24;;;;;;;;;;;7.80;99.90;;;;;;5036721;28;19921;-55
2024/03/22 06:34:49;;;;;;;;;;;7.90;99.90;;;;;;5028918;28;20396;-55
2024/03/22 06:37:15;;;;;;;;;;;8.00;99.90;;;;;;5036922;28;19917;-55
2024/03/22 06:39:40;;;;;;;;;;;8.10;99.90;;;;;;5034924;28;19951;-57
2024/03/22 06:42:06;;;;;;;;;;;8.10;99.90;;;;;;5038511;28;19927;-58
2024/03/22 06:44:31;;;;;;;;;;;8.20;99.90;;;;;;5037258;28;19970;-53
2024/03/22 06:46:57;;;;;;;;;;;8.30;99.90;;;;;;5028820;28;19928;-55
2024/03/22 06:49:22;;;;;;;;;;;8.30;99.90;;;;;;5044262;28;19917;-55
2024/03/22 06:51:48;;;;;;;;;;;8.40;99.90;;;;;;5028757;28;19913;-56
2024/03/22 06:54:13;;;;;;;;;;;8.40;99.90;;;;;;5036675;28;19928;-51
2024/03/22 06:56:39;;;;;;;;;;;8.40;99.90;;;;;;5036873;28;19921;-57
2024/03/22 06:59:04;;;;;;;;;;;8.40;99.90;;;;;;5032524;28;20031;-59
2024/03/22 07:01:29;;;;;;;;;;;8.40;99.90;;;;;;5047706;28;20384;-55
2024/03/22 07:03:55;;;;;;;;;;;8.40;99.90;;;;;;5032192;28;19963;-55
2024/03/22 07:06:20;;;;;;;;;;;8.60;99.90;;;;;;5032256;28;19917;-55
2024/03/22 07:08:46;;;;;;;;;;;8.60;99.90;;;;;;5031901;28;19928;-52
2024/03/22 07:11:11;;;;;;;;;;;8.70;99.90;;;;;;5032343;28;20274;-51
2024/03/22 07:13:37;;;;;;;;;;;8.60;99.90;;;;;;5032167;28;19920;-55
2024/03/22 07:16:03;;;;;;;;;;;8.70;99.90;;;;;;5031984;28;19918;-58
2024/03/22 07:18:28;;;;;;;;;;;8.80;99.90;;;;;;5039809;28;19913;-55
2024/03/22 07:20:54;;;;;;;;;;;8.80;99.90;;;;;;5040384;28;19990;-55
2024/03/22 07:23:19;;;;;;;;;;;8.90;99.90;;;;;;5040463;28;20377;-54
2024/03/22 07:25:48;;;;;;;;;;;9.00;99.90;;;;;;5038937;28;19928;-54
2024/03/22 07:28:14;;;;;;;;;;;9.10;99.90;;;;;;5032242;28;19917;-55
2024/03/22 07:30:39;;;;;;;;;;;9.10;99.90;;;;;;5038322;28;20307;-54
2024/03/22 07:33:05;;;;;;;;;;;9.30;99.90;;;;;;5034264;28;19975;-56
2024/03/22 07:35:30;;;;;;;;;;;9.50;99.90;;;;;;5036653;28;19920;-54
2024/03/22 07:37:56;;;;;;;;;;;9.80;99.90;;;;;;5034762;28;19923;-54
2024/03/22 07:40:22;;;;;;;;;;;10.10;99.90;;;;;;5031027;28;19921;-55
2024/03/22 07:42:47;;;;;;;;;;;10.40;99.90;;;;;;5031644;28;20395;-54
2024/03/22 07:45:12;;;;;;;;;;;10.70;99.90;;;;;;5031392;28;19913;-51
2024/03/22 07:47:38;;;;;;;;;;;11.00;99.90;;;;;;5031451;28;19917;-52
2024/03/22 07:50:04;;;;;;;;;;;11.50;99.90;;;;;;5039311;28;20525;-56
2024/03/22 07:52:29;;;;;;;;;;;12.10;99.90;;;;;;5039652;28;19913;-55
2024/03/22 07:54:55;;;;;;;;;;;12.40;99.90;;;;;;5031240;28;20304;-60
2024/03/22 07:57:21;;;;;;;;;;;12.90;99.90;;;;;;5039581;28;19924;-52
2024/03/22 07:59:47;;;;;;;;;;;13.20;99.90;;;;;;5037939;28;19943;-52
2024/03/22 08:02:12;;;;;;;;;;;13.40;99.90;;;;;;5042862;28;19913;-53
2024/03/22 08:04:38;;;;;;;;;;;13.60;99.90;;;;;;5045118;28;19924;-53
2024/03/22 08:07:03;;;;;;;;;;;13.80;99.90;;;;;;5031034;28;19923;-59
2024/03/22 08:09:29;;;;;;;;;;;13.90;99.90;;;;;;5029886;28;19913;-52
2024/03/22 08:11:54;;;;;;;;;;;14.20;99.90;;;;;;5030878;28;20316;-55
2024/03/22 08:14:20;;;;;;;;;;;14.70;99.90;;;;;;5034616;28;19923;-53
2024/03/22 08:16:46;;;;;;;;;;;15.30;99.90;;;;;;5042528;28;19913;-54
2024/03/22 08:19:11;;;;;;;;;;;15.60;99.90;;;;;;5031735;28;20292;-55
2024/03/22 08:21:37;;;;;;;;;;;15.80;99.90;;;;;;5044891;28;19975;-54
2024/03/22 08:24:02;;;;;;;;;;;15.80;99.90;;;;;;5033263;28;19913;-55
2024/03/22 08:26:28;;;;;;;;;;;15.90;99.90;;;;;;5030682;28;19917;-55
2024/03/22 08:28:53;;;;;;;;;;;16.00;99.90;;;;;;5030039;28;19927;-52
2024/03/22 08:31:25;;;;;;;;;;;16.10;99.90;;;;;;5047009;28;19924;-53
2024/03/22 08:33:51;;;;;;;;;;;16.20;99.90;;;;;;5030960;28;19913;-54
2024/03/22 08:36:16;;;;;;;;;;;16.20;99.90;;;;;;5030371;28;20293;-55
2024/03/22 08:38:42;;;;;;;;;;;16.40;99.90;;;;;;5030124;28;19987;-61
2024/03/22 08:41:07;;;;;;;;;;;16.90;99.90;;;;;;5030680;28;19920;-56
2024/03/22 08:43:33;;;;;;;;;;;17.10;99.90;;;;;;5030496;28;20434;-55
2024/03/22 08:45:58;;;;;;;;;;;17.40;99.90;;;;;;5030619;28;20007;-56
2024/03/22 08:48:24;;;;;;;;;;;17.60;99.90;;;;;;5049815;28;19921;-51
2024/03/22 08:50:49;;;;;;;;;;;17.70;99.90;;;;;;5034747;28;19940;-54
2024/03/22 08:53:15;;;;;;;;;;;17.90;99.90;;;;;;5030071;28;19921;-55
2024/03/22 08:55:47;;;;;;;;;;;18.10;99.90;;;;;;5030335;28;20385;-56
2024/03/22 08:58:13;;;;;;;;;;;18.10;99.90;;;;;;5032089;28;19937;-58
2024/03/22 09:00:38;;;;;;;;;;;18.00;99.90;;;;;;5035879;28;19983;-58
2024/03/22 09:03:04;;;;;;;;;;;17.80;99.90;;;;;;5029909;28;20405;-55
2024/03/22 09:05:29;;;;;;;;;;;17.80;99.90;;;;;;5038592;28;19917;-51
2024/03/22 09:07:56;;;;;;;;;;;17.40;99.90;;;;;;5037799;28;19921;-54
2024/03/22 09:10:22;;;;;;;;;;;17.20;99.90;;;;;;5021557;28;19916;-53
2024/03/22 09:12:47;;;;;;;;;;;17.30;99.90;;;;;;5038233;28;19917;-52
2024/03/22 09:15:13;;;;;;;;;;;17.30;99.90;;;;;;5040132;28;19914;-57
2024/03/22 09:17:38;;;;;;;;;;;17.30;99.90;;;;;;5035608;28;19971;-54
2024/03/22 09:20:05;;;;;;;;;;;17.40;99.90;;;;;;5038817;28;20300;-57
2024/03/22 09:22:32;;;;;;;;;;;17.70;99.90;;;;;;5036947;28;19917;-51
2024/03/22 09:24:57;;;;;;;;;;;17.70;99.90;;;;;;5029762;28;19913;-63
2024/03/22 09:27:23;;;;;;;;;;;17.40;99.90;;;;;;5045738;28;19927;-64
2024/03/22 09:29:48;;;;;;;;;;;17.10;99.90;;;;;;5028718;28;20359;-56
2024/03/22 09:32:14;;;;;;;;;;;17.40;99.90;;;;;;5040022;28;19916;-56
2024/03/22 09:34:40;;;;;;;;;;;17.50;99.90;;;;;;5041083;28;19916;-57
2024/03/22 09:37:06;;;;;;;;;;;17.30;99.90;;;;;;5039322;28;20000;-59
2024/03/22 09:39:32;;;;;;;;;;;17.10;99.90;;;;;;5041291;28;19919;-59
2024/03/22 09:41:58;;;;;;;;;;;17.40;99.90;;;;;;5032494;28;19936;-54
2024/03/22 09:44:26;;;;;;;;;;;17.40;99.90;;;;;;5033130;28;19986;-55
2024/03/22 09:46:52;;;;;;;;;;;17.70;99.90;;;;;;5033348;28;19928;-55
2024/03/22 09:49:18;;;;;;;;;;;17.80;99.90;;;;;;5039868;28;19921;-54
2024/03/22 09:51:45;;;;;;;;;;;17.90;99.90;;;;;;5033471;28;20303;-61
2024/03/22 09:54:11;;;;;;;;;;;17.90;99.90;;;;;;5045615;28;20024;-57
2024/03/22 09:56:39;;;;;;;;;;;18.30;99.90;;;;;;5029239;28;19921;-56
2024/03/22 09:59:06;;;;;;;;;;;18.20;99.90;;;;;;5036952;28;19970;-60
2024/03/22 10:01:34;;;;;;;;;;;18.10;99.90;;;;;;5029555;28;20377;-61
2024/03/22 10:03:59;;;;;;;;;;;17.80;99.90;;;;;;5037839;28;19945;-62
2024/03/22 10:06:25;;;;;;;;;;;17.90;99.90;;;;;;5036682;28;20207;-62
2024/03/22 10:08:50;;;;;;;;;;;17.90;99.90;;;;;;5028421;28;19979;-61
2024/03/22 10:11:16;;;;;;;;;;;17.90;99.90;;;;;;5037088;28;19913;-61
2024/03/22 10:13:42;;;;;;;;;;;17.90;99.90;;;;;;5028899;28;19917;-62
2024/03/22 10:16:08;;;;;;;;;;;18.20;99.90;;;;;;5028986;28;20329;-62
2024/03/22 10:18:36;;;;;;;;;;;18.40;99.90;;;;;;5033467;28;19982;-62
2024/03/22 10:21:02;;;;;;;;;;;18.50;99.90;;;;;;5039674;28;20022;-61
2024/03/22 10:23:29;;;;;;;;;;;18.50;99.90;;;;;;5028850;28;19913;-61
2024/03/22 10:25:55;;;;;;;;;;;18.50;99.90;;;;;;5036841;28;19913;-62
2024/03/22 10:28:21;;;;;;;;;;;18.80;99.90;;;;;;5028184;28;19920;-63
2024/03/22 10:30:48;;;;;;;;;;;18.60;99.90;;;;;;5029000;28;19917;-61
2024/03/22 10:33:15;;;;;;;;;;;18.60;99.90;;;;;;5032360;28;19913;-61
2024/03/22 10:35:41;;;;;;;;;;;18.70;99.90;;;;;;5046750;28;19918;-60
2024/03/22 10:38:07;;;;;;;;;;;18.90;99.90;;;;;;5033772;28;19924;-62
2024/03/22 10:40:33;;;;;;;;;;;18.90;99.90;;;;;;5043966;28;20337;-61
2024/03/22 10:43:00;;;;;;;;;;;18.80;99.90;;;;;;5044229;28;20358;-62
2024/03/22 10:45:27;;;;;;;;;;;18.60;99.90;;;;;;5040670;28;20285;-62
2024/03/22 10:47:55;;;;;;;;;;;18.20;99.90;;;;;;5040943;28;20011;-62
2024/03/22 10:50:21;;;;;;;;;;;17.80;99.90;;;;;;5031913;28;19921;-62
2024/03/22 10:52:50;;;;;;;;;;;17.70;99.90;;;;;;5040803;28;19913;-62
2024/03/22 10:55:20;;;;;;;;;;;17.60;99.90;;;;;;5032175;28;19917;-62
2024/03/22 10:57:46;;;;;;;;;;;17.40;99.90;;;;;;5032736;28;20308;-62
2024/03/22 11:00:11;;;;;;;;;;;17.40;99.90;;;;;;5033848;28;19925;-62
2024/03/22 11:02:37;;;;;;;;;;;17.10;99.90;;;;;;5047003;28;19917;-62
2024/03/22 11:05:07;;;;;;;;;;;17.00;99.90;;;;;;5041379;28;19919;-61
2024/03/22 11:07:32;;;;;;;;;;;16.90;99.90;;;;;;5043526;28;20064;-62
2024/03/22 11:10:00;;;;;;;;;;;17.00;99.90;;;;;;5043527;28;19970;-61
2024/03/22 11:12:26;;;;;;;;;;;17.00;99.90;;;;;;5036269;28;19927;-61
2024/03/22 11:14:55;;;;;;;;;;;17.20;99.90;;;;;;5036484;28;20270;-62
2024/03/22 11:17:24;;;;;;;;;;;17.30;99.90;;;;;;5040096;28;19917;-62
2024/03/22 11:19:53;;;;;;;;;;;17.20;99.90;;;;;;5031731;28;20315;-61
2024/03/22 11:22:18;;;;;;;;;;;17.20;99.90;;;;;;5042726;28;19920;-62
2024/03/22 11:24:44;;;;;;;;;;;17.10;99.90;;;;;;5043782;28;19966;-63
2024/03/22 11:27:10;;;;;;;;;;;17.00;99.90;;;;;;5033414;28;20468;-62
2024/03/22 11:29:38;;;;;;;;;;;16.80;99.90;;;;;;5031576;28;19940;-61
2024/03/22 11:32:04;;;;;;;;;;;16.80;99.90;;;;;;5032677;28;19920;-62
2024/03/22 11:34:30;;;;;;;;;;;16.70;99.90;;;;;;5038904;28;19917;-62
2024/03/22 11:36:55;;;;;;;;;;;16.50;99.90;;;;;;5040137;28;20008;-59
2024/03/22 11:39:21;;;;;;;;;;;16.40;99.90;;;;;;5034556;28;20020;-61
2024/03/22 11:41:48;;;;;;;;;;;16.50;99.90;;;;;;5044962;28;20075;-61
2024/03/22 11:44:15;;;;;;;;;;;16.50;99.90;;;;;;5029665;28;19966;-61
2024/03/22 11:46:40;;;;;;;;;;;16.60;99.90;;;;;;5037283;28;19924;-61
2024/03/22 11:49:06;;;;;;;;;;;16.80;99.90;;;;;;5033233;28;20380;-61
2024/03/22 11:51:32;;;;;;;;;;;16.70;99.90;;;;;;5044237;28;19917;-61
2024/03/22 11:53:57;;;;;;;;;;;16.70;99.90;;;;;;5051156;28;19913;-59
2024/03/22 11:56:24;;;;;;;;;;;16.80;99.90;;;;;;5039641;28;20325;-62
2024/03/22 11:58:57;;;;;;;;;;;16.70;99.90;;;;;;5030734;28;19924;-61
2024/03/22 12:01:22;;;;;;;;;;;16.60;99.90;;;;;;5031182;28;19963;-61
2024/03/22 12:03:48;;;;;;;;;;;16.50;99.90;;;;;;5031263;28;19918;-60
2024/03/22 12:06:15;;;;;;;;;;;16.50;99.90;;;;;;5031139;28;20456;-59
2024/03/22 12:08:40;;;;;;;;;;;16.50;99.90;;;;;;5030465;28;20023;-59
2024/03/22 12:11:09;;;;;;;;;;;16.60;99.90;;;;;;5032231;28;20350;-59
2024/03/22 12:13:35;;;;;;;;;;;16.70;99.90;;;;;;5037679;28;19917;-58
2024/03/22 12:16:01;;;;;;;;;;;16.70;99.90;;;;;;5031006;28;19910;-56
2024/03/22 12:18:27;;;;;;;;;;;16.80;99.90;;;;;;5030055;28;19960;-57
2024/03/22 12:20:53;;;;;;;;;;;16.70;99.90;;;;;;5033175;28;20341;-58
2024/03/22 12:23:18;;;;;;;;;;;16.80;99.90;;;;;;5030116;28;19917;-56
2024/03/22 12:25:43;;;;;;;;;;;16.90;99.90;;;;;;5030464;28;19939;-59
2024/03/22 12:28:09;;;;;;;;;;;16.90;99.90;;;;;;5030448;28;20340;-58
2024/03/22 12:30:34;;;;;;;;;;;16.90;99.90;;;;;;5030348;28;19924;-61
2024/03/22 12:33:00;;;;;;;;;;;16.80;99.90;;;;;;5030239;28;20432;-60
2024/03/22 12:35:26;;;;;;;;;;;16.80;99.90;;;;;;5030484;28;19917;-61
2024/03/22 12:37:52;;;;;;;;;;;16.70;99.90;;;;;;5037686;28;19913;-60
2024/03/22 12:40:18;;;;;;;;;;;16.70;99.90;;;;;;5038924;28;19966;-58
2024/03/22 12:42:44;;;;;;;;;;;16.70;99.90;;;;;;5039116;28;20011;-61
2024/03/22 12:45:09;;;;;;;;;;;16.70;99.90;;;;;;5040132;28;20352;-56
2024/03/22 12:47:35;;;;;;;;;;;16.70;99.90;;;;;;5036933;28;19976;-60
2024/03/22 12:50:00;;;;;;;;;;;16.60;99.90;;;;;;5029946;28;19921;-60
2024/03/22 12:52:25;;;;;;;;;;;16.40;99.90;;;;;;5030166;28;19920;-60
2024/03/22 12:54:51;;;;;;;;;;;16.30;99.90;;;;;;5030014;28;20014;-59
2024/03/22 12:57:16;;;;;;;;;;;16.20;99.90;;;;;;5037736;28;20285;-59
2024/03/22 12:59:42;;;;;;;;;;;16.20;99.90;;;;;;5035735;28;19916;-58
2024/03/22 13:02:07;;;;;;;;;;;16.20;99.90;;;;;;5040368;28;19943;-59
2024/03/22 13:04:33;;;;;;;;;;;16.10;99.90;;;;;;5030047;28;19925;-56
2024/03/22 13:06:58;;;;;;;;;;;16.20;99.90;;;;;;5038310;28;19924;-57
2024/03/22 13:09:24;;;;;;;;;;;16.20;99.90;;;;;;5021158;28;19956;-59
2024/03/22 13:11:49;;;;;;;;;;;16.20;99.90;;;;;;5030068;28;19971;-55
2024/03/22 13:14:15;;;;;;;;;;;16.20;99.90;;;;;;5038042;28;19983;-59
2024/03/22 13:16:41;;;;;;;;;;;16.30;99.90;;;;;;5029677;28;19948;-59
2024/03/22 13:19:08;;;;;;;;;;;16.30;99.90;;;;;;5030143;28;20336;-57
2024/03/22 13:21:34;;;;;;;;;;;16.30;99.90;;;;;;5036807;28;19913;-59
2024/03/22 13:23:59;;;;;;;;;;;16.40;99.90;;;;;;5029898;28;20608;-59
2024/03/22 13:26:25;;;;;;;;;;;16.40;99.90;;;;;;5037602;28;19921;-58
2024/03/22 13:28:51;;;;;;;;;;;16.40;99.90;;;;;;5036279;28;20012;-60
2024/03/22 13:31:17;;;;;;;;;;;16.50;99.90;;;;;;5032780;28;19955;-58
2024/03/22 13:33:42;;;;;;;;;;;16.50;99.90;;;;;;5035306;28;20012;-60
2024/03/22 13:36:08;;;;;;;;;;;16.40;99.90;;;;;;5037398;28;19956;-58
2024/03/22 13:38:34;;;;;;;;;;;16.40;99.90;;;;;;5028957;28;19923;-59
2024/03/22 13:41:00;;;;;;;;;;;16.30;99.90;;;;;;5029462;28;19924;-58
2024/03/22 13:43:27;;;;;;;;;;;16.40;99.90;;;;;;5037463;28;20361;-59
2024/03/22 13:45:55;;;;;;;;;;;16.40;99.90;;;;;;5036447;28;20371;-60
2024/03/22 13:48:24;;;;;;;;;;;16.40;99.90;;;;;;5029086;28;19915;-58
2024/03/22 13:50:53;;;;;;;;;;;16.40;99.90;;;;;;5037551;28;20052;-57
2024/03/22 13:53:19;;;;;;;;;;;16.60;99.90;;;;;;5031581;28;20000;-59
2024/03/22 13:55:44;;;;;;;;;;;16.70;99.90;;;;;;5041702;28;20003;-60
2024/03/22 13:58:10;;;;;;;;;;;16.70;99.90;;;;;;5028016;28;19913;-60
2024/03/22 14:00:36;;;;;;;;;;;16.80;99.90;;;;;;5042672;28;20357;-60
2024/03/22 14:03:01;;;;;;;;;;;16.80;99.90;;;;;;5040921;28;20004;-58
2024/03/22 14:05:27;;;;;;;;;;;16.80;99.90;;;;;;5037058;28;19917;-60
2024/03/22 14:07:53;;;;;;;;;;;16.80;99.90;;;;;;5028522;28;19990;-59
2024/03/22 14:10:18;;;;;;;;;;;16.80;99.90;;;;;;5028628;28;20008;-59
2024/03/22 14:12:45;;;;;;;;;;;16.90;99.90;;;;;;5035336;28;19923;-58
2024/03/22 14:15:10;;;;;;;;;;;16.90;99.90;;;;;;5032294;28;19917;-58